Time;durP1;ratioP1;P1;durP2;ratioP2;P2;SDS_P1;SDS_P2;PMS_P1;PMS_P2;Temp;Humidity;BMP_temperature;BMP_pressure;BME280_temperature;BME280_humidity;BME280_pressure;Samples;Min_cycle;Max_cycle;Signal;HPM_P1;HPM_P2
2021/10/06 00:00:36;;;;;;;4.07;2.33;;;12.70;99.90;;;;;;4978504;28;20180;-73
2021/10/06 00:03:02;;;;;;;7.23;2.40;;;12.70;99.90;;;;;;4977971;28;20177;-73
2021/10/06 00:05:28;;;;;;;2.70;2.03;;;12.80;99.90;;;;;;4976754;28;20359;-73
2021/10/06 00:07:53;;;;;;;3.30;2.13;;;12.80;99.90;;;;;;4977732;28;20612;-73
2021/10/06 00:10:19;;;;;;;2.30;1.93;;;12.70;99.90;;;;;;4977827;28;20653;-73
2021/10/06 00:12:45;;;;;;;2.70;2.20;;;12.70;99.90;;;;;;4978243;28;20177;-73
2021/10/06 00:15:11;;;;;;;6.87;2.20;;;12.70;99.90;;;;;;4977622;28;20196;-73
2021/10/06 00:17:38;;;;;;;3.60;2.43;;;12.70;99.90;;;;;;4977575;28;20724;-73
2021/10/06 00:20:04;;;;;;;3.13;2.30;;;12.70;99.90;;;;;;4977832;28;20417;-73
2021/10/06 00:22:30;;;;;;;2.80;2.40;;;12.70;99.90;;;;;;4976640;28;20416;-73
2021/10/06 00:24:55;;;;;;;3.63;2.00;;;12.60;99.90;;;;;;4977252;28;20540;-73
2021/10/06 00:27:21;;;;;;;2.37;1.73;;;12.50;99.90;;;;;;4977794;28;20252;-73
2021/10/06 00:29:46;;;;;;;2.93;2.00;;;12.50;99.90;;;;;;4977359;28;20205;-73
2021/10/06 00:32:12;;;;;;;1.87;1.77;;;12.50;99.90;;;;;;4977472;28;20227;-72
2021/10/06 00:34:38;;;;;;;3.90;1.60;;;12.40;99.90;;;;;;4992414;28;20626;-72
2021/10/06 00:37:03;;;;;;;3.60;1.93;;;12.40;99.90;;;;;;4977630;28;20201;-73
2021/10/06 00:39:29;;;;;;;4.13;1.97;;;12.40;99.90;;;;;;4977204;28;20577;-73
2021/10/06 00:41:54;;;;;;;4.87;2.00;;;12.40;99.90;;;;;;4977241;28;20184;-73
2021/10/06 00:44:21;;;;;;;2.40;1.90;;;12.50;99.90;;;;;;4977322;28;20658;-73
2021/10/06 00:46:48;;;;;;;3.07;2.40;;;12.40;99.90;;;;;;4977271;28;20658;-73
2021/10/06 00:49:16;;;;;;;3.37;1.87;;;12.40;99.90;;;;;;4977149;28;20437;-73
2021/10/06 00:51:42;;;;;;;3.50;2.03;;;12.50;99.90;;;;;;4977163;28;20412;-73
2021/10/06 00:54:08;;;;;;;3.17;1.80;;;12.50;99.90;;;;;;4976651;28;20431;-73
2021/10/06 00:56:35;;;;;;;3.93;1.67;;;12.40;99.90;;;;;;4975807;28;20447;-73
2021/10/06 00:59:00;;;;;;;2.20;1.73;;;12.40;99.90;;;;;;4977420;28;20428;-73
2021/10/06 01:01:26;;;;;;;2.80;1.97;;;12.40;99.90;;;;;;4976882;28;20439;-73
2021/10/06 01:03:51;;;;;;;4.40;1.90;;;12.50;99.90;;;;;;4976613;28;20196;-73
2021/10/06 01:06:17;;;;;;;3.70;1.67;;;12.40;99.90;;;;;;4977325;28;20545;-73
2021/10/06 01:08:43;;;;;;;2.73;1.40;;;12.40;99.90;;;;;;4977533;28;20208;-73
2021/10/06 01:11:10;;;;;;;2.17;1.60;;;12.50;99.90;;;;;;4977058;28;20447;-73
2021/10/06 01:13:37;;;;;;;3.23;2.07;;;12.50;99.90;;;;;;4978516;28;20197;-73
2021/10/06 01:16:05;;;;;;;3.00;1.90;;;12.50;99.90;;;;;;4977668;28;20443;-73
2021/10/06 01:18:31;;;;;;;3.33;1.70;;;12.40;99.90;;;;;;4977002;28;20405;-73
2021/10/06 01:21:05;;;;;;;1.90;1.70;;;12.50;99.90;;;;;;4975592;28;20480;-73
2021/10/06 01:23:30;;;;;;;4.33;1.87;;;12.50;99.90;;;;;;4975293;28;20491;-73
2021/10/06 01:25:56;;;;;;;2.70;1.97;;;12.40;99.90;;;;;;4984516;28;20459;-73
2021/10/06 01:28:21;;;;;;;2.97;1.80;;;12.40;99.90;;;;;;5000871;28;20188;-73
2021/10/06 01:30:47;;;;;;;2.80;1.60;;;12.40;99.90;;;;;;4980603;28;20184;-73
2021/10/06 01:33:12;;;;;;;4.07;2.83;;;12.40;99.90;;;;;;4976645;28;20197;-73
2021/10/06 01:35:38;;;;;;;2.90;2.10;;;12.30;99.90;;;;;;4976187;28;20205;-73
2021/10/06 01:38:04;;;;;;;4.60;2.37;;;12.30;99.90;;;;;;4977083;28;20177;-73
2021/10/06 01:40:29;;;;;;;5.40;2.03;;;12.30;99.90;;;;;;4977130;28;20263;-73
2021/10/06 01:42:55;;;;;;;4.10;1.70;;;12.30;99.90;;;;;;4976846;28;20176;-73
2021/10/06 01:45:23;;;;;;;2.60;1.60;;;12.20;99.90;;;;;;4976473;28;20189;-73
2021/10/06 01:47:49;;;;;;;3.10;2.00;;;12.30;99.90;;;;;;4973746;28;20183;-73
2021/10/06 01:50:23;;;;;;;2.47;1.90;;;12.20;99.90;;;;;;4974928;28;20428;-73
2021/10/06 01:52:50;;;;;;;3.20;1.60;;;12.20;99.90;;;;;;4991319;28;20203;-73
2021/10/06 01:55:15;;;;;;;4.10;1.73;;;12.20;99.90;;;;;;4990771;28;20949;-73
2021/10/06 01:57:41;;;;;;;2.60;1.80;;;12.20;99.90;;;;;;4987099;28;20459;-73
2021/10/06 02:00:07;;;;;;;3.23;1.90;;;12.20;99.90;;;;;;4979025;28;20168;-73
2021/10/06 02:02:32;;;;;;;7.37;2.00;;;12.20;99.90;;;;;;4974958;28;20251;-73
2021/10/06 02:04:58;;;;;;;5.67;2.10;;;12.30;99.90;;;;;;4975715;28;20456;-73
2021/10/06 02:07:23;;;;;;;7.07;2.60;;;12.30;99.90;;;;;;4975260;28;20654;-73
2021/10/06 02:09:49;;;;;;;5.40;1.93;;;12.20;99.90;;;;;;4976172;28;20630;-73
2021/10/06 02:12:15;;;;;;;2.77;1.90;;;12.20;99.90;;;;;;4975867;28;20288;-73
2021/10/06 02:14:40;;;;;;;3.20;1.93;;;12.20;99.90;;;;;;4975430;28;20184;-73
2021/10/06 02:17:06;;;;;;;5.20;2.20;;;12.30;99.90;;;;;;4974671;28;20213;-73
2021/10/06 02:19:31;;;;;;;2.83;1.80;;;12.30;99.90;;;;;;4975182;28;20181;-73
2021/10/06 02:21:57;;;;;;;7.07;2.17;;;12.30;99.90;;;;;;4990277;28;21001;-73
2021/10/06 02:24:22;;;;;;;7.27;2.33;;;12.30;99.90;;;;;;4975149;28;20200;-73
2021/10/06 02:26:48;;;;;;;3.07;1.90;;;12.30;99.90;;;;;;4975132;28;20197;-73
2021/10/06 02:29:13;;;;;;;6.10;2.20;;;12.30;99.90;;;;;;4975422;28;20184;-73
2021/10/06 02:31:39;;;;;;;6.10;1.97;;;12.30;99.90;;;;;;4975421;28;20617;-73
2021/10/06 02:34:04;;;;;;;7.13;2.67;;;12.30;99.90;;;;;;4973966;28;20180;-73
2021/10/06 02:36:30;;;;;;;3.93;2.20;;;12.20;99.90;;;;;;4974983;28;20203;-73
2021/10/06 02:38:55;;;;;;;4.13;2.27;;;12.30;99.90;;;;;;4973853;28;20276;-73
2021/10/06 02:41:21;;;;;;;6.50;2.47;;;12.20;99.90;;;;;;4975518;28;20585;-73
2021/10/06 02:43:47;;;;;;;6.00;2.03;;;12.30;99.90;;;;;;4974717;28;20201;-73
2021/10/06 02:46:12;;;;;;;7.10;2.50;;;12.30;99.90;;;;;;4975390;28;20197;-73
2021/10/06 02:48:38;;;;;;;4.07;1.87;;;12.20;99.90;;;;;;4979568;28;20570;-73
2021/10/06 02:51:04;;;;;;;3.13;1.90;;;12.20;99.90;;;;;;4982692;28;20236;-73
2021/10/06 02:53:30;;;;;;;9.00;2.77;;;12.10;99.90;;;;;;4974932;28;20412;-73
2021/10/06 02:55:55;;;;;;;2.83;2.00;;;12.10;99.90;;;;;;4975021;28;20658;-73
2021/10/06 02:58:21;;;;;;;5.03;2.03;;;12.00;99.90;;;;;;4975553;28;20259;-73
2021/10/06 03:00:46;;;;;;;9.10;2.70;;;12.00;99.90;;;;;;4975411;28;20570;-73
2021/10/06 03:03:12;;;;;;;6.23;2.30;;;12.00;99.90;;;;;;4974771;28;20655;-73
2021/10/06 03:05:38;;;;;;;3.23;2.10;;;12.10;99.90;;;;;;4974783;28;20336;-73
2021/10/06 03:08:04;;;;;;;8.00;2.07;;;12.10;99.90;;;;;;4974964;28;20499;-73
2021/10/06 03:10:29;;;;;;;5.63;1.80;;;12.10;99.90;;;;;;4973921;28;20201;-73
2021/10/06 03:12:55;;;;;;;2.70;1.83;;;12.10;99.90;;;;;;4974320;28;20200;-73
2021/10/06 03:15:20;;;;;;;5.87;2.23;;;12.20;99.90;;;;;;4975208;28;20189;-73
2021/10/06 03:17:46;;;;;;;3.53;1.73;;;12.10;99.90;;;;;;4973696;28;20203;-73
2021/10/06 03:20:12;;;;;;;4.60;2.20;;;12.10;99.90;;;;;;4975377;28;20235;-73
2021/10/06 03:22:38;;;;;;;3.93;2.63;;;12.10;99.90;;;;;;4974701;28;20184;-73
2021/10/06 03:25:05;;;;;;;3.90;2.30;;;12.10;99.90;;;;;;4973798;28;20490;-73
2021/10/06 03:27:30;;;;;;;6.00;2.37;;;12.10;99.90;;;;;;4974489;28;20413;-73
2021/10/06 03:29:56;;;;;;;3.63;2.30;;;12.20;99.90;;;;;;4974819;28;20519;-74
2021/10/06 03:32:22;;;;;;;3.13;2.40;;;12.10;99.90;;;;;;4973143;28;20268;-73
2021/10/06 03:34:47;;;;;;;4.20;2.10;;;12.10;99.90;;;;;;4973798;28;20207;-73
2021/10/06 03:37:13;;;;;;;4.00;2.53;;;12.10;99.90;;;;;;4973874;28;20216;-73
2021/10/06 03:39:38;;;;;;;3.67;2.20;;;12.10;99.90;;;;;;4974104;28;20169;-73
2021/10/06 03:42:04;;;;;;;11.87;2.13;;;12.10;99.90;;;;;;4974643;28;20185;-73
2021/10/06 03:44:29;;;;;;;4.33;2.43;;;12.10;99.90;;;;;;4974064;28;20215;-73
2021/10/06 03:46:55;;;;;;;3.67;2.00;;;12.10;99.90;;;;;;4974133;28;20288;-73
2021/10/06 03:49:21;;;;;;;4.60;2.07;;;12.10;99.90;;;;;;4974977;28;20247;-73
2021/10/06 03:51:46;;;;;;;6.03;2.90;;;12.20;99.90;;;;;;4974360;28;20184;-73
2021/10/06 03:54:12;;;;;;;6.97;2.40;;;12.20;99.90;;;;;;4973846;28;20661;-73
2021/10/06 03:56:37;;;;;;;2.13;1.97;;;12.20;99.90;;;;;;4973984;28;20205;-73
2021/10/06 03:59:03;;;;;;;5.27;2.40;;;12.10;99.90;;;;;;4974780;28;20330;-73
2021/10/06 04:01:29;;;;;;;5.93;2.30;;;12.10;99.90;;;;;;4974237;28;20220;-73
2021/10/06 04:03:55;;;;;;;5.63;2.20;;;12.10;99.90;;;;;;4973889;28;20287;-73
2021/10/06 04:06:20;;;;;;;3.53;2.20;;;12.10;99.90;;;;;;4973582;28;20452;-73
2021/10/06 04:08:46;;;;;;;5.77;2.30;;;12.10;99.90;;;;;;4974278;28;20184;-73
2021/10/06 04:11:11;;;;;;;3.73;2.40;;;12.20;99.90;;;;;;4974528;28;20183;-73
2021/10/06 04:13:37;;;;;;;2.73;2.47;;;12.20;99.90;;;;;;4963745;28;20690;-73
2021/10/06 04:16:02;;;;;;;5.70;2.00;;;12.30;99.90;;;;;;4963277;28;20308;-73
2021/10/06 04:18:28;;;;;;;2.63;1.87;;;12.20;99.90;;;;;;4962462;28;20203;-73
2021/10/06 04:20:53;;;;;;;6.43;1.73;;;12.30;99.90;;;;;;4965439;28;20186;-73
2021/10/06 04:23:19;;;;;;;5.37;1.80;;;12.30;99.90;;;;;;4965412;28;20230;-73
2021/10/06 04:25:44;;;;;;;2.10;1.90;;;12.30;99.90;;;;;;4961823;28;20259;-73
2021/10/06 04:28:10;;;;;;;2.17;1.90;;;12.30;99.90;;;;;;4967433;28;20188;-74
2021/10/06 04:30:36;;;;;;;2.30;1.90;;;12.30;99.90;;;;;;4965447;28;20212;-74
2021/10/06 04:33:01;;;;;;;2.33;1.80;;;12.30;99.90;;;;;;4973609;28;20192;-72
2021/10/06 04:35:27;;;;;;;4.03;2.47;;;12.30;99.90;;;;;;4973603;28;20239;-72
2021/10/06 04:37:53;;;;;;;5.50;1.70;;;12.40;99.90;;;;;;4961043;28;20559;-71
2021/10/06 04:40:19;;;;;;;4.47;1.90;;;12.30;99.90;;;;;;4971081;28;20418;-71
2021/10/06 04:42:46;;;;;;;4.90;1.90;;;12.30;99.90;;;;;;4962145;28;20217;-72
2021/10/06 04:45:12;;;;;;;5.97;2.10;;;12.30;99.90;;;;;;4963965;28;20692;-74
2021/10/06 04:47:38;;;;;;;6.60;2.63;;;12.30;99.90;;;;;;4972086;28;20429;-73
2021/10/06 04:50:04;;;;;;;3.83;2.40;;;12.30;99.90;;;;;;4966774;28;20479;-73
2021/10/06 04:52:30;;;;;;;5.43;1.60;;;12.30;99.90;;;;;;4966961;28;20463;-73
2021/10/06 04:54:56;;;;;;;2.33;1.67;;;12.30;99.90;;;;;;4971042;28;20945;-73
2021/10/06 04:57:21;;;;;;;4.97;2.40;;;12.30;99.90;;;;;;4972965;28;20224;-73
2021/10/06 04:59:47;;;;;;;3.33;1.70;;;12.30;99.90;;;;;;4972219;28;20600;-73
2021/10/06 05:02:13;;;;;;;4.07;2.60;;;12.30;99.90;;;;;;4971779;28;20204;-72
2021/10/06 05:04:39;;;;;;;5.60;1.90;;;12.30;99.90;;;;;;4972689;28;20232;-73
2021/10/06 05:07:04;;;;;;;7.60;2.50;;;12.20;99.90;;;;;;4974862;28;20951;-73
2021/10/06 05:09:30;;;;;;;2.73;1.83;;;12.20;99.90;;;;;;4975107;28;20745;-73
2021/10/06 05:11:55;;;;;;;3.73;1.90;;;12.30;99.90;;;;;;4974089;28;20228;-73
2021/10/06 05:14:21;;;;;;;2.80;1.93;;;12.30;99.90;;;;;;4974244;28;20208;-73
2021/10/06 05:16:47;;;;;;;5.67;1.97;;;12.30;99.90;;;;;;4973432;28;20212;-73
2021/10/06 05:19:12;;;;;;;4.03;2.03;;;12.30;99.90;;;;;;4974485;28;20213;-73
2021/10/06 05:21:41;;;;;;;3.07;1.90;;;12.30;99.90;;;;;;4972397;28;20210;-73
2021/10/06 05:24:07;;;;;;;4.33;1.70;;;12.40;99.90;;;;;;4973669;28;20570;-73
2021/10/06 05:26:33;;;;;;;1.67;1.50;;;12.40;99.90;;;;;;4973412;28;20435;-74
2021/10/06 05:28:58;;;;;;;4.87;2.17;;;12.40;99.90;;;;;;4974194;28;20217;-72
2021/10/06 05:31:24;;;;;;;5.73;2.00;;;12.40;99.90;;;;;;4973348;28;20625;-72
2021/10/06 05:33:49;;;;;;;5.57;1.60;;;12.30;99.90;;;;;;4973213;28;20209;-72
2021/10/06 05:36:16;;;;;;;2.97;1.73;;;12.30;99.90;;;;;;4974509;28;20271;-72
2021/10/06 05:38:42;;;;;;;3.40;1.70;;;12.30;99.90;;;;;;4974265;28;20244;-72
2021/10/06 05:41:08;;;;;;;11.10;2.00;;;12.30;99.90;;;;;;4975808;28;20524;-73
2021/10/06 05:43:34;;;;;;;5.63;2.00;;;12.30;99.90;;;;;;4974768;28;20472;-73
2021/10/06 05:46:00;;;;;;;5.43;1.80;;;12.30;99.90;;;;;;4974931;28;20834;-73
2021/10/06 05:48:26;;;;;;;4.23;1.63;;;12.30;99.90;;;;;;4974345;28;20328;-73
2021/10/06 05:50:51;;;;;;;3.20;1.80;;;12.30;99.90;;;;;;4972835;28;20169;-73
2021/10/06 05:53:18;;;;;;;4.63;1.73;;;12.20;99.90;;;;;;4974387;28;20537;-73
2021/10/06 05:55:43;;;;;;;2.00;1.80;;;12.20;99.90;;;;;;4975502;28;20599;-73
2021/10/06 05:58:09;;;;;;;3.20;1.97;;;12.20;99.90;;;;;;4975677;28;20504;-73
2021/10/06 06:00:35;;;;;;;2.73;1.70;;;12.20;99.90;;;;;;4976328;28;20500;-73
2021/10/06 06:03:00;;;;;;;4.93;2.17;;;12.30;99.90;;;;;;4976824;28;20174;-73
2021/10/06 06:05:26;;;;;;;4.03;2.00;;;12.20;99.90;;;;;;4976793;28;20260;-73
2021/10/06 06:07:52;;;;;;;5.70;2.50;;;12.20;99.90;;;;;;4980154;28;20251;-73
2021/10/06 06:10:18;;;;;;;3.37;2.00;;;12.30;99.90;;;;;;4976072;28;20445;-73
2021/10/06 06:12:43;;;;;;;3.10;2.20;;;12.40;99.90;;;;;;4974776;28;20606;-73
2021/10/06 06:15:09;;;;;;;5.93;1.57;;;12.30;99.90;;;;;;4975666;28;20195;-73
2021/10/06 06:17:38;;;;;;;5.00;2.07;;;12.40;99.90;;;;;;4975447;28;20204;-73
2021/10/06 06:20:10;;;;;;;4.37;2.57;;;12.40;99.90;;;;;;4975931;28;20761;-73
2021/10/06 06:22:37;;;;;;;3.30;1.70;;;12.30;99.90;;;;;;4976236;28;20446;-73
2021/10/06 06:25:04;;;;;;;3.03;1.87;;;12.30;99.90;;;;;;4984043;28;20479;-73
2021/10/06 06:27:30;;;;;;;3.10;1.40;;;12.30;99.90;;;;;;4990717;28;20424;-73
2021/10/06 06:29:55;;;;;;;3.60;1.60;;;12.40;99.90;;;;;;4988429;28;20499;-73
2021/10/06 06:32:21;;;;;;;4.00;1.87;;;12.40;99.90;;;;;;4986274;28;20224;-73
2021/10/06 06:34:46;;;;;;;3.23;1.77;;;12.40;99.90;;;;;;4976847;28;20208;-73
2021/10/06 06:37:12;;;;;;;3.50;1.63;;;12.40;99.90;;;;;;4975290;28;20267;-73
2021/10/06 06:39:37;;;;;;;2.10;1.90;;;12.50;99.90;;;;;;4975784;28;20204;-73
2021/10/06 06:42:03;;;;;;;3.90;2.07;;;12.50;99.90;;;;;;4975398;28;20664;-73
2021/10/06 06:44:28;;;;;;;2.73;1.47;;;12.50;99.90;;;;;;4980121;28;20518;-74
2021/10/06 06:46:54;;;;;;;4.67;1.53;;;12.50;99.90;;;;;;4975280;28;20200;-74
2021/10/06 06:49:20;;;;;;;6.13;1.87;;;12.50;99.90;;;;;;4975838;28;20639;-74
2021/10/06 06:51:45;;;;;;;5.13;1.97;;;12.60;99.90;;;;;;4975374;28;20187;-74
2021/10/06 06:54:11;;;;;;;4.63;1.70;;;12.70;99.90;;;;;;4974909;28;20184;-74
2021/10/06 06:56:39;;;;;;;5.23;2.17;;;12.70;99.90;;;;;;4975332;28;20200;-74
2021/10/06 06:59:07;;;;;;;2.63;1.93;;;12.70;99.90;;;;;;4976395;28;20199;-74
2021/10/06 07:01:33;;;;;;;2.83;1.88;;;12.70;99.90;;;;;;4974807;28;20967;-74
2021/10/06 07:03:59;;;;;;;4.97;2.10;;;12.70;99.90;;;;;;4974445;28;20522;-74
2021/10/06 07:06:27;;;;;;;5.50;2.03;;;12.60;99.90;;;;;;4975255;28;20436;-74
2021/10/06 07:08:52;;;;;;;3.77;2.40;;;12.50;99.90;;;;;;4973558;28;20650;-74
2021/10/06 07:11:18;;;;;;;3.70;2.07;;;12.50;99.90;;;;;;4974882;28;20427;-74
2021/10/06 07:13:43;;;;;;;3.57;2.73;;;12.50;99.90;;;;;;4975277;28;20276;-74
2021/10/06 07:16:09;;;;;;;1.70;1.60;;;12.40;99.90;;;;;;4974226;28;20251;-74
2021/10/06 07:18:35;;;;;;;6.40;2.10;;;12.40;99.90;;;;;;4974470;28;20181;-74
2021/10/06 07:21:01;;;;;;;2.23;1.80;;;12.30;99.90;;;;;;4975205;28;20413;-73
2021/10/06 07:23:26;;;;;;;2.00;1.80;;;12.30;99.90;;;;;;4974660;28;20207;-73
2021/10/06 07:25:52;;;;;;;5.70;2.33;;;12.20;99.90;;;;;;4974524;28;20708;-73
2021/10/06 07:28:17;;;;;;;4.87;2.37;;;12.20;99.90;;;;;;4974371;28;20184;-73
2021/10/06 07:30:43;;;;;;;6.53;2.50;;;12.10;99.90;;;;;;4974969;28;20177;-73
2021/10/06 07:33:08;;;;;;;4.73;2.00;;;12.20;99.90;;;;;;4974571;28;20262;-73
2021/10/06 07:35:34;;;;;;;4.67;2.73;;;12.10;99.90;;;;;;4973768;28;20203;-73
2021/10/06 07:38:00;;;;;;;3.70;3.13;;;12.10;99.90;;;;;;4975213;28;20175;-73
2021/10/06 07:40:25;;;;;;;3.10;2.20;;;12.00;99.90;;;;;;4974487;28;20599;-73
2021/10/06 07:42:51;;;;;;;2.50;2.20;;;12.00;99.90;;;;;;4974286;28;20531;-73
2021/10/06 07:45:16;;;;;;;3.17;2.40;;;12.00;99.90;;;;;;4975738;28;20216;-73
2021/10/06 07:47:42;;;;;;;4.93;2.20;;;12.00;99.90;;;;;;4974069;28;20283;-73
2021/10/06 07:50:08;;;;;;;7.27;2.20;;;12.00;99.90;;;;;;4974059;28;20327;-73
2021/10/06 07:52:34;;;;;;;2.87;2.33;;;12.00;99.90;;;;;;4974563;28;20183;-73
2021/10/06 07:54:59;;;;;;;5.40;2.90;;;12.00;99.90;;;;;;4972406;28;20444;-73
2021/10/06 07:57:25;;;;;;;3.43;2.50;;;12.00;99.90;;;;;;4973927;28;20440;-73
2021/10/06 07:59:50;;;;;;;7.20;2.80;;;12.00;99.90;;;;;;4974322;28;20204;-73
2021/10/06 08:02:16;;;;;;;5.63;2.90;;;12.00;99.90;;;;;;4973860;28;20188;-73
2021/10/06 08:04:41;;;;;;;5.37;2.33;;;12.10;99.90;;;;;;4973904;28;20217;-72
2021/10/06 08:07:07;;;;;;;3.53;2.17;;;12.20;99.90;;;;;;4974073;28;20518;-72
2021/10/06 08:09:32;;;;;;;4.57;2.70;;;12.30;99.90;;;;;;4974367;28;20172;-73
2021/10/06 08:11:58;;;;;;;9.30;2.80;;;12.30;99.90;;;;;;4973486;28;20177;-72
2021/10/06 08:14:23;;;;;;;5.00;2.70;;;12.50;99.90;;;;;;4973543;28;20435;-73
2021/10/06 08:16:49;;;;;;;3.27;2.53;;;12.60;99.90;;;;;;4975637;28;20267;-73
2021/10/06 08:19:15;;;;;;;2.67;2.00;;;12.70;99.90;;;;;;4977978;28;20549;-73
2021/10/06 08:21:41;;;;;;;3.67;2.20;;;12.80;99.90;;;;;;4977144;28;20181;-73
2021/10/06 08:24:07;;;;;;;4.17;2.33;;;12.80;99.90;;;;;;4978477;28;20267;-73
2021/10/06 08:26:32;;;;;;;4.00;1.83;;;12.90;99.90;;;;;;4978049;28;20200;-73
2021/10/06 08:28:58;;;;;;;2.70;1.90;;;12.80;99.90;;;;;;4977182;28;20945;-73
2021/10/06 08:31:24;;;;;;;3.90;2.90;;;12.70;99.90;;;;;;4976093;28;20272;-73
2021/10/06 08:33:50;;;;;;;5.20;2.00;;;12.70;99.90;;;;;;4977810;28;20172;-72
2021/10/06 08:36:16;;;;;;;4.97;2.30;;;12.70;99.90;;;;;;4977367;28;20297;-73
2021/10/06 08:38:41;;;;;;;5.70;3.00;;;12.70;99.90;;;;;;4977817;28;20452;-72
2021/10/06 08:41:07;;;;;;;2.73;2.40;;;12.70;99.90;;;;;;4977472;28;20184;-73
2021/10/06 08:43:36;;;;;;;3.50;2.07;;;12.50;99.90;;;;;;4977029;28;20470;-73
2021/10/06 08:46:02;;;;;;;2.67;2.10;;;12.60;99.90;;;;;;4977785;28;20798;-73
2021/10/06 08:48:30;;;;;;;2.83;1.80;;;12.50;99.90;;;;;;4976078;28;20469;-74
2021/10/06 08:50:55;;;;;;;4.60;1.90;;;12.60;99.90;;;;;;4977389;28;20324;-73
2021/10/06 08:53:21;;;;;;;5.80;2.10;;;12.50;99.90;;;;;;4977105;28;20557;-74
2021/10/06 08:55:46;;;;;;;5.40;2.07;;;12.50;99.90;;;;;;4977263;28;20189;-73
2021/10/06 08:58:12;;;;;;;4.17;2.40;;;12.60;99.90;;;;;;4977300;28;20184;-73
2021/10/06 09:00:51;;;;;;;4.73;1.83;;;12.50;99.90;;;;;;4977771;28;20215;-73
2021/10/06 09:03:30;;;;;;;3.47;2.10;;;12.60;99.90;;;;;;4978433;28;20260;-73
2021/10/06 09:06:13;;;;;;;3.90;2.07;;;12.60;99.90;;;;;;4976140;28;20952;-73
2021/10/06 09:08:44;;;;;;;2.00;1.80;;;12.70;99.90;;;;;;4977425;28;20416;-73
2021/10/06 09:11:11;;;;;;;4.03;1.70;;;12.70;99.90;;;;;;4977009;28;20495;-73
2021/10/06 09:13:40;;;;;;;4.03;1.80;;;12.60;99.90;;;;;;4976436;28;20440;-73
2021/10/06 09:16:06;;;;;;;4.80;2.13;;;12.60;99.90;;;;;;4975190;28;20490;-73
2021/10/06 09:18:33;;;;;;;5.93;2.33;;;12.60;99.90;;;;;;4976770;28;20821;-73
2021/10/06 09:21:04;;;;;;;5.53;1.63;;;12.60;99.90;;;;;;4977726;28;20181;-72
2021/10/06 09:23:34;;;;;;;6.10;2.10;;;12.60;99.90;;;;;;4978472;28;20464;-73
2021/10/06 09:26:01;;;;;;;2.10;1.90;;;12.50;99.90;;;;;;4981241;28;20964;-74
2021/10/06 09:28:33;;;;;;;4.50;2.60;;;12.60;99.90;;;;;;4976189;28;20414;-74
2021/10/06 09:31:01;;;;;;;6.40;2.30;;;12.60;99.90;;;;;;4977704;28;20173;-74
2021/10/06 09:33:57;;;;;;;3.30;2.30;;;12.60;99.90;;;;;;4977688;28;20408;-74
2021/10/06 09:36:25;;;;;;;2.33;2.00;;;12.60;99.90;;;;;;4915974;29;20443;-74
2021/10/06 09:38:56;;;;;;;4.57;2.10;;;12.60;99.90;;;;;;4917111;29;20422;-74
2021/10/06 09:41:36;;;;;;;3.53;2.10;;;12.60;99.90;;;;;;4917739;29;20443;-74
2021/10/06 09:44:19;;;;;;;6.70;2.60;;;12.70;99.90;;;;;;4916954;29;20461;-74
2021/10/06 09:46:59;;;;;;;3.23;1.63;;;12.60;99.90;;;;;;4915009;29;20457;-74
2021/10/06 09:49:38;;;;;;;4.10;1.90;;;12.50;99.90;;;;;;4901347;29;20411;-73
2021/10/06 09:52:22;;;;;;;3.10;2.40;;;12.50;99.90;;;;;;4916911;29;20441;-73
2021/10/06 09:54:56;;;;;;;2.80;2.20;;;12.50;99.90;;;;;;4900621;29;20562;-73
2021/10/06 09:57:42;;;;;;;4.47;2.30;;;12.60;99.90;;;;;;4906275;29;20439;-73
2021/10/06 10:00:15;;;;;;;3.00;2.27;;;12.50;99.90;;;;;;4882035;29;20871;-73
2021/10/06 10:02:41;;;;;;;6.20;2.20;;;12.50;99.90;;;;;;4881736;29;20575;-73
2021/10/06 10:05:09;;;;;;;3.00;2.03;;;12.40;99.90;;;;;;4897390;29;20925;-73
2021/10/06 10:07:34;;;;;;;2.10;2.00;;;12.50;99.90;;;;;;4899373;29;20431;-73
2021/10/06 10:10:00;;;;;;;5.97;1.90;;;12.50;99.90;;;;;;4898649;29;20418;-73
2021/10/06 10:12:27;;;;;;;3.30;2.03;;;12.50;99.90;;;;;;4919811;29;20241;-73
2021/10/06 10:14:55;;;;;;;2.27;2.07;;;12.50;99.90;;;;;;4956499;28;20767;-73
2021/10/06 10:17:21;;;;;;;4.60;2.20;;;12.60;99.90;;;;;;4956576;28;20439;-73
2021/10/06 10:20:12;;;;;;;2.63;2.00;;;12.60;99.90;;;;;;4956677;28;20421;-73
2021/10/06 10:22:47;;;;;;;3.80;2.30;;;12.50;99.90;;;;;;4968930;28;20428;-74
2021/10/06 10:25:19;;;;;;;3.70;2.10;;;12.50;99.90;;;;;;4975529;28;20460;-74
2021/10/06 10:28:10;;;;;;;4.17;1.77;;;12.30;99.90;;;;;;4976812;28;20841;-73
2021/10/06 10:30:55;;;;;;;2.90;2.20;;;12.30;99.90;;;;;;4976578;28;20421;-74
2021/10/06 10:33:54;;;;;;;7.40;2.10;;;12.40;99.90;;;;;;4974031;28;20425;-74
2021/10/06 10:36:32;;;;;;;2.40;1.90;;;12.40;99.90;;;;;;4974393;28;20945;-74
2021/10/06 10:38:59;;;;;;;2.33;2.10;;;12.50;99.90;;;;;;4974724;28;20435;-74
2021/10/06 10:41:44;;;;;;;1.87;1.70;;;12.60;99.90;;;;;;4974696;28;20455;-74
2021/10/06 10:44:10;;;;;;;3.40;2.80;;;12.50;99.90;;;;;;4956089;28;20993;-74
2021/10/06 10:46:59;;;;;;;3.37;2.13;;;12.50;99.90;;;;;;4955396;28;20433;-74
2021/10/06 10:49:25;;;;;;;3.00;2.70;;;12.40;99.90;;;;;;4955582;28;20409;-74
2021/10/06 10:51:57;;;;;;;3.80;3.43;;;12.50;99.90;;;;;;4955949;28;20412;-73
2021/10/06 10:54:31;;;;;;;4.80;3.73;;;12.50;99.90;;;;;;4955232;28;20413;-73
2021/10/06 10:56:57;;;;;;;3.40;3.20;;;12.40;99.90;;;;;;4962902;28;20447;-73
2021/10/06 10:59:25;;;;;;;3.67;3.30;;;12.50;99.90;;;;;;4974451;28;20415;-72
2021/10/06 11:01:58;;;;;;;3.90;3.60;;;12.60;99.90;;;;;;4973451;28;20503;-72
2021/10/06 11:04:28;;;;;;;3.40;3.13;;;12.60;99.90;;;;;;4974650;28;20543;-73
2021/10/06 11:07:18;;;;;;;4.10;3.70;;;12.60;99.90;;;;;;4974154;28;20453;-73
2021/10/06 11:09:49;;;;;;;4.03;3.43;;;12.70;99.90;;;;;;4974850;28;20405;-73
2021/10/06 11:12:14;;;;;;;4.20;3.60;;;12.60;99.90;;;;;;4974562;28;20397;-74
2021/10/06 11:14:42;;;;;;;3.90;3.20;;;12.60;99.90;;;;;;4974361;28;20427;-73
2021/10/06 11:17:15;;;;;;;4.07;3.50;;;12.40;99.90;;;;;;4974645;28;20673;-74
2021/10/06 11:19:49;;;;;;;3.87;3.17;;;12.40;99.90;;;;;;4975449;28;20882;-74
2021/10/06 11:22:26;;;;;;;3.20;2.90;;;12.50;99.90;;;;;;4974771;28;20408;-74
2021/10/06 11:25:02;;;;;;;3.37;3.00;;;12.40;99.90;;;;;;4974144;28;20542;-73
2021/10/06 11:27:49;;;;;;;3.50;3.20;;;12.40;99.90;;;;;;4974508;28;20456;-74
2021/10/06 11:30:16;;;;;;;3.87;3.60;;;12.40;99.90;;;;;;4974707;28;20734;-74
2021/10/06 11:32:47;;;;;;;3.40;3.13;;;12.40;99.90;;;;;;4974919;28;20902;-74
2021/10/06 11:35:13;;;;;;;2.97;2.77;;;12.40;99.90;;;;;;4975719;28;20926;-73
2021/10/06 11:37:39;;;;;;;2.87;2.67;;;12.40;99.90;;;;;;4975009;28;20409;-73
2021/10/06 11:40:13;;;;;;;2.83;2.63;;;12.50;99.90;;;;;;4974683;28;20412;-73
2021/10/06 11:42:39;;;;;;;2.63;2.53;;;12.50;99.90;;;;;;4974761;28;20647;-74
2021/10/06 11:45:18;;;;;;;3.43;3.13;;;12.40;99.90;;;;;;4974612;28;20494;-74
2021/10/06 11:47:44;;;;;;;3.20;3.00;;;12.40;99.90;;;;;;4974075;28;20561;-74
2021/10/06 11:50:09;;;;;;;3.30;2.80;;;12.40;99.90;;;;;;4974430;28;20427;-74
2021/10/06 11:52:35;;;;;;;3.40;3.20;;;12.40;99.90;;;;;;4979266;28;20173;-74
2021/10/06 11:55:01;;;;;;;3.13;2.90;;;12.40;99.90;;;;;;4978784;28;20247;-73
2021/10/06 11:57:27;;;;;;;3.70;3.50;;;12.50;99.90;;;;;;4975856;28;20429;-73
2021/10/06 11:59:52;;;;;;;5.27;3.70;;;12.40;99.90;;;;;;4980258;28;20256;-72
2021/10/06 12:02:20;;;;;;;3.60;3.30;;;12.40;99.90;;;;;;4978820;28;20774;-72
2021/10/06 12:04:48;;;;;;;4.70;4.30;;;12.40;99.90;;;;;;4977838;28;20476;-73
2021/10/06 12:07:19;;;;;;;3.60;3.30;;;12.40;99.90;;;;;;4978701;28;20404;-74
2021/10/06 12:09:48;;;;;;;3.90;3.57;;;12.50;99.90;;;;;;4976924;28;20412;-74
2021/10/06 12:12:22;;;;;;;4.07;3.70;;;12.40;99.90;;;;;;4978838;28;20728;-74
2021/10/06 12:14:49;;;;;;;3.40;3.13;;;12.40;99.90;;;;;;4976495;28;20930;-74
2021/10/06 12:17:20;;;;;;;4.10;3.80;;;12.40;99.90;;;;;;4993681;28;20456;-74
2021/10/06 12:20:11;;;;;;;4.13;3.60;;;12.40;99.90;;;;;;4992730;28;20420;-74
2021/10/06 12:22:44;;;;;;;4.20;3.90;;;12.40;99.90;;;;;;4978249;28;20776;-74
2021/10/06 12:25:23;;;;;;;3.63;3.30;;;12.40;99.90;;;;;;4977927;28;20512;-74
2021/10/06 12:28:21;;;;;;;4.60;4.20;;;12.30;99.90;;;;;;4977880;28;20380;-74
2021/10/06 12:30:54;;;;;;;4.50;3.67;;;12.30;99.90;;;;;;4918961;29;20872;-73
2021/10/06 12:33:24;;;;;;;3.63;3.30;;;12.40;99.90;;;;;;4919412;29;20506;-74
2021/10/06 12:35:54;;;;;;;4.40;4.00;;;12.40;99.90;;;;;;4919119;29;20443;-74
2021/10/06 12:38:21;;;;;;;4.10;3.80;;;12.50;99.90;;;;;;4904185;29;20464;-74
2021/10/06 12:40:51;;;;;;;4.73;4.20;;;12.40;99.90;;;;;;4904651;29;20423;-73
2021/10/06 12:43:21;;;;;;;4.00;3.70;;;12.50;99.90;;;;;;4912052;29;20439;-73
2021/10/06 12:46:04;;;;;;;4.27;3.80;;;12.50;99.90;;;;;;4918513;29;20541;-73
2021/10/06 12:48:39;;;;;;;3.60;3.40;;;12.50;99.90;;;;;;4918263;29;20768;-73
2021/10/06 12:51:08;;;;;;;4.30;3.40;;;12.60;99.90;;;;;;4918488;29;20897;-73